sensor_id;sensor_type;location;lat;lon;timestamp;P1;durP1;ratioP1;P2;durP2;ratioP2
70744;SDS011;59284;31.390;34.904;2023-01-05T00:01:04;27.77;;;13.05;;
70744;SDS011;59284;31.390;34.904;2023-01-05T00:03:32;26.98;;;12.95;;
70744;SDS011;59284;31.390;34.904;2023-01-05T00:05:59;32.07;;;13.97;;
70744;SDS011;59284;31.390;34.904;2023-01-05T00:08:25;30.02;;;14.40;;
70744;SDS011;59284;31.390;34.904;2023-01-05T00:10:51;25.65;;;13.35;;
70744;SDS011;59284;31.390;34.904;2023-01-05T00:13:35;29.05;;;13.57;;
70744;SDS011;59284;31.390;34.904;2023-01-05T00:16:19;28.20;;;13.37;;
70744;SDS011;59284;31.390;34.904;2023-01-05T00:19:03;24.90;;;12.95;;
70744;SDS011;59284;31.390;34.904;2023-01-05T00:21:47;31.35;;;14.65;;
70744;SDS011;59284;31.390;34.904;2023-01-05T00:24:31;29.00;;;14.98;;
70744;SDS011;59284;31.390;34.904;2023-01-05T00:26:57;28.07;;;15.27;;
70744;SDS011;59284;31.390;34.904;2023-01-05T00:29:22;30.83;;;15.30;;
70744;SDS011;59284;31.390;34.904;2023-01-05T00:31:48;33.80;;;14.33;;
70744;SDS011;59284;31.390;34.904;2023-01-05T00:34:14;32.17;;;15.02;;
70744;SDS011;59284;31.390;34.904;2023-01-05T00:36:39;33.13;;;15.30;;
70744;SDS011;59284;31.390;34.904;2023-01-05T00:39:05;33.03;;;15.55;;
70744;SDS011;59284;31.390;34.904;2023-01-05T00:41:31;30.95;;;15.40;;
70744;SDS011;59284;31.390;34.904;2023-01-05T00:43:57;30.63;;;15.47;;
70744;SDS011;59284;31.390;34.904;2023-01-05T00:46:23;39.70;;;16.15;;
70744;SDS011;59284;31.390;34.904;2023-01-05T00:48:48;36.20;;;15.17;;
70744;SDS011;59284;31.390;34.904;2023-01-05T00:51:14;35.07;;;15.80;;
70744;SDS011;59284;31.390;34.904;2023-01-05T00:53:39;35.63;;;16.45;;
70744;SDS011;59284;31.390;34.904;2023-01-05T00:56:05;41.63;;;16.87;;
70744;SDS011;59284;31.390;34.904;2023-01-05T00:58:31;37.28;;;17.20;;
70744;SDS011;59284;31.390;34.904;2023-01-05T01:00:57;39.28;;;17.58;;
70744;SDS011;59284;31.390;34.904;2023-01-05T01:03:22;38.73;;;17.43;;
70744;SDS011;59284;31.390;34.904;2023-01-05T01:05:55;37.05;;;17.42;;
70744;SDS011;59284;31.390;34.904;2023-01-05T01:08:21;36.10;;;17.27;;
70744;SDS011;59284;31.390;34.904;2023-01-05T01:10:47;40.67;;;17.05;;
70744;SDS011;59284;31.390;34.904;2023-01-05T01:13:13;38.73;;;17.60;;
70744;SDS011;59284;31.390;34.904;2023-01-05T01:15:38;36.80;;;15.90;;
70744;SDS011;59284;31.390;34.904;2023-01-05T01:18:04;38.50;;;17.23;;
70744;SDS011;59284;31.390;34.904;2023-01-05T01:20:30;38.97;;;17.70;;
70744;SDS011;59284;31.390;34.904;2023-01-05T01:22:55;37.63;;;17.33;;
70744;SDS011;59284;31.390;34.904;2023-01-05T01:25:24;41.42;;;17.58;;
70744;SDS011;59284;31.390;34.904;2023-01-05T01:27:50;42.72;;;18.58;;
70744;SDS011;59284;31.390;34.904;2023-01-05T01:30:16;41.83;;;18.70;;
70744;SDS011;59284;31.390;34.904;2023-01-05T01:32:42;51.10;;;19.15;;
70744;SDS011;59284;31.390;34.904;2023-01-05T01:35:07;46.23;;;19.13;;
70744;SDS011;59284;31.390;34.904;2023-01-05T01:37:33;40.90;;;17.15;;
70744;SDS011;59284;31.390;34.904;2023-01-05T01:39:59;48.63;;;19.87;;
70744;SDS011;59284;31.390;34.904;2023-01-05T01:42:25;33.33;;;16.08;;
70744;SDS011;59284;31.390;34.904;2023-01-05T01:44:52;30.87;;;13.10;;
70744;SDS011;59284;31.390;34.904;2023-01-05T01:47:23;42.47;;;19.00;;
70744;SDS011;59284;31.390;34.904;2023-01-05T01:49:51;46.85;;;20.92;;
70744;SDS011;59284;31.390;34.904;2023-01-05T01:52:19;48.03;;;22.30;;
70744;SDS011;59284;31.390;34.904;2023-01-05T01:54:48;46.43;;;19.80;;
70744;SDS011;59284;31.390;34.904;2023-01-05T01:57:16;48.97;;;21.30;;
70744;SDS011;59284;31.390;34.904;2023-01-05T01:59:42;51.88;;;22.15;;
70744;SDS011;59284;31.390;34.904;2023-01-05T02:02:07;45.03;;;19.93;;
70744;SDS011;59284;31.390;34.904;2023-01-05T02:04:35;47.30;;;20.33;;
70744;SDS011;59284;31.390;34.904;2023-01-05T02:07:02;46.08;;;19.38;;
70744;SDS011;59284;31.390;34.904;2023-01-05T02:09:29;47.78;;;20.17;;
70744;SDS011;59284;31.390;34.904;2023-01-05T02:14:52;43.87;;;19.77;;
70744;SDS011;59284;31.390;34.904;2023-01-05T02:24:06;43.90;;;19.63;;
70744;SDS011;59284;31.390;34.904;2023-01-05T02:31:55;41.97;;;18.73;;
70744;SDS011;59284;31.390;34.904;2023-01-05T02:35:26;40.50;;;19.55;;
70744;SDS011;59284;31.390;34.904;2023-01-05T02:37:40;43.08;;;18.75;;
70744;SDS011;59284;31.390;34.904;2023-01-05T02:40:31;43.80;;;17.40;;
70744;SDS011;59284;31.390;34.904;2023-01-05T02:43:00;40.90;;;17.30;;
70744;SDS011;59284;31.390;34.904;2023-01-05T02:45:27;41.28;;;18.17;;
70744;SDS011;59284;31.390;34.904;2023-01-05T02:47:53;45.55;;;19.80;;
70744;SDS011;59284;31.390;34.904;2023-01-05T02:52:59;46.22;;;17.20;;
70744;SDS011;59284;31.390;34.904;2023-01-05T02:58:17;48.00;;;18.23;;
70744;SDS011;59284;31.390;34.904;2023-01-05T03:01:05;38.60;;;15.95;;
70744;SDS011;59284;31.390;34.904;2023-01-05T03:03:57;36.33;;;14.40;;
70744;SDS011;59284;31.390;34.904;2023-01-05T03:09:24;38.88;;;17.00;;
70744;SDS011;59284;31.390;34.904;2023-01-05T03:12:11;41.38;;;16.67;;
70744;SDS011;59284;31.390;34.904;2023-01-05T03:15:08;50.30;;;20.55;;
70744;SDS011;59284;31.390;34.904;2023-01-05T03:17:51;40.37;;;18.27;;
70744;SDS011;59284;31.390;34.904;2023-01-05T03:20:22;45.90;;;19.83;;
70744;SDS011;59284;31.390;34.904;2023-01-05T03:22:51;43.50;;;17.83;;
70744;SDS011;59284;31.390;34.904;2023-01-05T03:25:38;38.78;;;18.45;;
70744;SDS011;59284;31.390;34.904;2023-01-05T03:28:24;44.40;;;18.27;;
70744;SDS011;59284;31.390;34.904;2023-01-05T03:31:17;42.57;;;16.87;;
70744;SDS011;59284;31.390;34.904;2023-01-05T03:34:07;40.45;;;16.65;;
70744;SDS011;59284;31.390;34.904;2023-01-05T03:37:09;34.50;;;15.63;;
70744;SDS011;59284;31.390;34.904;2023-01-05T03:39:40;37.85;;;16.15;;
70744;SDS011;59284;31.390;34.904;2023-01-05T03:42:08;39.25;;;17.95;;
70744;SDS011;59284;31.390;34.904;2023-01-05T03:44:38;38.40;;;15.63;;
70744;SDS011;59284;31.390;34.904;2023-01-05T03:47:05;40.67;;;17.50;;
70744;SDS011;59284;31.390;34.904;2023-01-05T03:49:32;37.90;;;16.33;;
70744;SDS011;59284;31.390;34.904;2023-01-05T03:51:58;35.90;;;17.03;;
70744;SDS011;59284;31.390;34.904;2023-01-05T03:54:23;31.30;;;16.13;;
70744;SDS011;59284;31.390;34.904;2023-01-05T03:56:49;36.37;;;15.37;;
70744;SDS011;59284;31.390;34.904;2023-01-05T03:59:15;30.63;;;14.80;;
70744;SDS011;59284;31.390;34.904;2023-01-05T04:01:40;33.07;;;15.53;;
70744;SDS011;59284;31.390;34.904;2023-01-05T04:04:06;33.85;;;15.98;;
70744;SDS011;59284;31.390;34.904;2023-01-05T04:06:32;38.70;;;15.37;;
70744;SDS011;59284;31.390;34.904;2023-01-05T04:08:57;43.00;;;16.30;;
70744;SDS011;59284;31.390;34.904;2023-01-05T04:11:23;38.63;;;17.00;;
70744;SDS011;59284;31.390;34.904;2023-01-05T04:13:50;42.45;;;17.90;;
70744;SDS011;59284;31.390;34.904;2023-01-05T04:16:16;36.20;;;16.30;;
70744;SDS011;59284;31.390;34.904;2023-01-05T04:18:42;42.23;;;17.47;;
70744;SDS011;59284;31.390;34.904;2023-01-05T04:21:08;43.22;;;17.17;;
70744;SDS011;59284;31.390;34.904;2023-01-05T04:23:34;47.60;;;18.88;;
70744;SDS011;59284;31.390;34.904;2023-01-05T04:26:00;46.37;;;18.97;;
70744;SDS011;59284;31.390;34.904;2023-01-05T04:28:26;57.05;;;20.20;;
70744;SDS011;59284;31.390;34.904;2023-01-05T04:30:52;54.95;;;19.08;;
70744;SDS011;59284;31.390;34.904;2023-01-05T04:33:19;49.57;;;19.07;;
70744;SDS011;59284;31.390;34.904;2023-01-05T04:35:45;49.80;;;18.90;;
70744;SDS011;59284;31.390;34.904;2023-01-05T04:38:11;57.17;;;20.05;;
70744;SDS011;59284;31.390;34.904;2023-01-05T04:40:37;53.08;;;19.77;;
70744;SDS011;59284;31.390;34.904;2023-01-05T04:43:03;47.27;;;20.33;;
70744;SDS011;59284;31.390;34.904;2023-01-05T04:45:29;45.47;;;18.73;;
70744;SDS011;59284;31.390;34.904;2023-01-05T04:47:55;55.63;;;21.35;;
70744;SDS011;59284;31.390;34.904;2023-01-05T04:50:21;53.07;;;20.43;;
70744;SDS011;59284;31.390;34.904;2023-01-05T04:52:47;47.30;;;18.42;;
70744;SDS011;59284;31.390;34.904;2023-01-05T04:55:13;57.35;;;23.00;;
70744;SDS011;59284;31.390;34.904;2023-01-05T05:00:14;57.47;;;21.55;;
70744;SDS011;59284;31.390;34.904;2023-01-05T05:02:40;57.20;;;23.15;;
70744;SDS011;59284;31.390;34.904;2023-01-05T05:05:05;55.70;;;21.80;;
70744;SDS011;59284;31.390;34.904;2023-01-05T05:07:31;61.40;;;23.42;;
70744;SDS011;59284;31.390;34.904;2023-01-05T05:09:57;69.83;;;24.33;;
70744;SDS011;59284;31.390;34.904;2023-01-05T05:12:22;69.72;;;23.40;;
70744;SDS011;59284;31.390;34.904;2023-01-05T05:14:48;64.63;;;23.83;;
70744;SDS011;59284;31.390;34.904;2023-01-05T05:17:14;74.75;;;24.83;;
70744;SDS011;59284;31.390;34.904;2023-01-05T05:19:41;71.78;;;25.10;;
70744;SDS011;59284;31.390;34.904;2023-01-05T05:22:07;78.27;;;26.13;;
70744;SDS011;59284;31.390;34.904;2023-01-05T05:24:33;75.05;;;26.55;;
70744;SDS011;59284;31.390;34.904;2023-01-05T05:26:59;78.28;;;28.08;;
70744;SDS011;59284;31.390;34.904;2023-01-05T05:29:27;74.67;;;28.83;;
70744;SDS011;59284;31.390;34.904;2023-01-05T05:31:56;66.80;;;25.58;;
70744;SDS011;59284;31.390;34.904;2023-01-05T05:34:36;66.53;;;25.73;;
70744;SDS011;59284;31.390;34.904;2023-01-05T05:37:07;69.53;;;24.17;;
70744;SDS011;59284;31.390;34.904;2023-01-05T05:39:33;52.60;;;23.47;;
70744;SDS011;59284;31.390;34.904;2023-01-05T05:42:01;58.38;;;24.63;;
70744;SDS011;59284;31.390;34.904;2023-01-05T05:44:41;52.78;;;21.48;;
70744;SDS011;59284;31.390;34.904;2023-01-05T05:47:09;52.35;;;22.52;;
70744;SDS011;59284;31.390;34.904;2023-01-05T05:49:35;47.87;;;21.07;;
70744;SDS011;59284;31.390;34.904;2023-01-05T05:52:01;50.10;;;22.48;;
70744;SDS011;59284;31.390;34.904;2023-01-05T05:54:26;36.23;;;18.90;;
70744;SDS011;59284;31.390;34.904;2023-01-05T05:56:52;41.83;;;18.83;;
70744;SDS011;59284;31.390;34.904;2023-01-05T05:59:18;39.67;;;18.35;;
70744;SDS011;59284;31.390;34.904;2023-01-05T06:01:43;44.03;;;19.70;;
70744;SDS011;59284;31.390;34.904;2023-01-05T06:04:09;31.67;;;15.80;;
70744;SDS011;59284;31.390;34.904;2023-01-05T06:06:35;30.73;;;15.30;;
70744;SDS011;59284;31.390;34.904;2023-01-05T06:09:01;33.63;;;15.77;;
70744;SDS011;59284;31.390;34.904;2023-01-05T06:11:28;33.43;;;15.87;;
70744;SDS011;59284;31.390;34.904;2023-01-05T06:13:54;29.15;;;12.25;;
70744;SDS011;59284;31.390;34.904;2023-01-05T06:16:19;39.38;;;16.20;;
70744;SDS011;59284;31.390;34.904;2023-01-05T06:18:45;37.23;;;17.67;;
70744;SDS011;59284;31.390;34.904;2023-01-05T06:21:11;29.13;;;14.53;;
70744;SDS011;59284;31.390;34.904;2023-01-05T06:23:36;24.60;;;12.93;;
70744;SDS011;59284;31.390;34.904;2023-01-05T06:26:03;23.13;;;13.20;;
70744;SDS011;59284;31.390;34.904;2023-01-05T06:28:29;23.38;;;13.57;;
70744;SDS011;59284;31.390;34.904;2023-01-05T06:30:55;21.97;;;12.33;;
70744;SDS011;59284;31.390;34.904;2023-01-05T06:33:20;28.48;;;12.90;;
70744;SDS011;59284;31.390;34.904;2023-01-05T06:35:46;23.57;;;11.37;;
70744;SDS011;59284;31.390;34.904;2023-01-05T06:38:11;18.52;;;10.80;;
70744;SDS011;59284;31.390;34.904;2023-01-05T06:40:40;18.63;;;9.23;;
70744;SDS011;59284;31.390;34.904;2023-01-05T06:43:10;25.52;;;10.25;;
70744;SDS011;59284;31.390;34.904;2023-01-05T06:45:36;21.83;;;10.25;;
70744;SDS011;59284;31.390;34.904;2023-01-05T06:48:02;13.38;;;8.50;;
70744;SDS011;59284;31.390;34.904;2023-01-05T06:50:28;18.70;;;9.60;;
70744;SDS011;59284;31.390;34.904;2023-01-05T06:52:56;19.03;;;9.70;;
70744;SDS011;59284;31.390;34.904;2023-01-05T06:55:24;19.98;;;9.95;;
70744;SDS011;59284;31.390;34.904;2023-01-05T06:57:50;21.92;;;10.60;;
70744;SDS011;59284;31.390;34.904;2023-01-05T07:00:15;21.70;;;10.83;;
70744;SDS011;59284;31.390;34.904;2023-01-05T07:02:42;19.83;;;11.25;;
70744;SDS011;59284;31.390;34.904;2023-01-05T07:05:07;19.88;;;9.93;;
70744;SDS011;59284;31.390;34.904;2023-01-05T07:07:33;22.70;;;10.93;;
70744;SDS011;59284;31.390;34.904;2023-01-05T07:09:59;22.27;;;10.35;;
70744;SDS011;59284;31.390;34.904;2023-01-05T07:12:25;16.17;;;10.13;;
70744;SDS011;59284;31.390;34.904;2023-01-05T07:14:51;20.13;;;10.00;;
70744;SDS011;59284;31.390;34.904;2023-01-05T07:17:17;19.13;;;7.75;;
70744;SDS011;59284;31.390;34.904;2023-01-05T07:19:43;19.52;;;10.30;;
70744;SDS011;59284;31.390;34.904;2023-01-05T07:22:09;20.20;;;9.63;;
70744;SDS011;59284;31.390;34.904;2023-01-05T07:24:34;17.55;;;9.52;;
70744;SDS011;59284;31.390;34.904;2023-01-05T07:27:00;18.40;;;9.53;;
70744;SDS011;59284;31.390;34.904;2023-01-05T07:29:26;19.93;;;8.80;;
70744;SDS011;59284;31.390;34.904;2023-01-05T07:31:53;18.90;;;9.53;;
70744;SDS011;59284;31.390;34.904;2023-01-05T07:34:19;16.85;;;10.00;;
70744;SDS011;59284;31.390;34.904;2023-01-05T07:36:45;18.35;;;9.77;;
70744;SDS011;59284;31.390;34.904;2023-01-05T07:39:11;19.90;;;10.25;;
70744;SDS011;59284;31.390;34.904;2023-01-05T07:41:37;18.67;;;10.10;;
70744;SDS011;59284;31.390;34.904;2023-01-05T07:44:03;19.88;;;10.15;;
70744;SDS011;59284;31.390;34.904;2023-01-05T07:46:29;21.97;;;11.03;;
70744;SDS011;59284;31.390;34.904;2023-01-05T07:48:55;16.88;;;9.55;;
70744;SDS011;59284;31.390;34.904;2023-01-05T07:51:20;16.77;;;8.10;;
70744;SDS011;59284;31.390;34.904;2023-01-05T07:53:46;17.20;;;9.53;;
70744;SDS011;59284;31.390;34.904;2023-01-05T07:56:12;15.38;;;9.02;;
70744;SDS011;59284;31.390;34.904;2023-01-05T07:58:38;22.35;;;10.48;;
70744;SDS011;59284;31.390;34.904;2023-01-05T08:01:05;16.50;;;8.47;;
70744;SDS011;59284;31.390;34.904;2023-01-05T08:03:32;15.48;;;9.77;;
70744;SDS011;59284;31.390;34.904;2023-01-05T08:06:02;19.02;;;9.93;;
70744;SDS011;59284;31.390;34.904;2023-01-05T08:08:31;12.63;;;8.32;;
70744;SDS011;59284;31.390;34.904;2023-01-05T08:10:57;14.40;;;8.50;;
70744;SDS011;59284;31.390;34.904;2023-01-05T08:13:23;13.23;;;7.88;;
70744;SDS011;59284;31.390;34.904;2023-01-05T08:16:32;19.03;;;9.90;;
70744;SDS011;59284;31.390;34.904;2023-01-05T08:18:58;17.30;;;8.13;;
70744;SDS011;59284;31.390;34.904;2023-01-05T08:21:26;13.80;;;9.15;;
70744;SDS011;59284;31.390;34.904;2023-01-05T08:23:52;15.40;;;8.60;;
70744;SDS011;59284;31.390;34.904;2023-01-05T08:26:21;15.32;;;8.43;;
70744;SDS011;59284;31.390;34.904;2023-01-05T08:28:48;16.43;;;8.47;;
70744;SDS011;59284;31.390;34.904;2023-01-05T08:31:19;15.38;;;7.90;;
70744;SDS011;59284;31.390;34.904;2023-01-05T08:33:47;15.20;;;8.57;;
70744;SDS011;59284;31.390;34.904;2023-01-05T08:36:13;14.03;;;7.50;;
70744;SDS011;59284;31.390;34.904;2023-01-05T08:38:40;12.73;;;7.00;;
70744;SDS011;59284;31.390;34.904;2023-01-05T08:41:33;12.65;;;7.43;;
70744;SDS011;59284;31.390;34.904;2023-01-05T08:44:01;12.02;;;7.68;;
70744;SDS011;59284;31.390;34.904;2023-01-05T08:46:30;11.13;;;7.05;;
70744;SDS011;59284;31.390;34.904;2023-01-05T08:49:01;10.05;;;7.53;;
70744;SDS011;59284;31.390;34.904;2023-01-05T08:51:29;11.23;;;7.10;;
70744;SDS011;59284;31.390;34.904;2023-01-05T08:53:56;12.30;;;7.43;;
70744;SDS011;59284;31.390;34.904;2023-01-05T08:56:24;10.70;;;6.90;;
70744;SDS011;59284;31.390;34.904;2023-01-05T08:58:51;13.18;;;7.07;;
70744;SDS011;59284;31.390;34.904;2023-01-05T09:01:19;12.63;;;7.63;;
70744;SDS011;59284;31.390;34.904;2023-01-05T09:03:49;12.27;;;6.53;;
70744;SDS011;59284;31.390;34.904;2023-01-05T09:06:15;11.05;;;6.30;;
70744;SDS011;59284;31.390;34.904;2023-01-05T09:08:41;11.23;;;5.50;;
70744;SDS011;59284;31.390;34.904;2023-01-05T09:11:10;8.98;;;5.15;;
70744;SDS011;59284;31.390;34.904;2023-01-05T09:13:39;6.40;;;4.50;;
70744;SDS011;59284;31.390;34.904;2023-01-05T09:16:06;7.97;;;4.63;;
70744;SDS011;59284;31.390;34.904;2023-01-05T09:18:36;7.13;;;4.20;;
70744;SDS011;59284;31.390;34.904;2023-01-05T09:21:02;9.88;;;4.88;;
70744;SDS011;59284;31.390;34.904;2023-01-05T09:23:33;10.30;;;4.80;;
70744;SDS011;59284;31.390;34.904;2023-01-05T09:26:02;6.88;;;4.50;;
70744;SDS011;59284;31.390;34.904;2023-01-05T09:28:29;7.47;;;3.20;;
70744;SDS011;59284;31.390;34.904;2023-01-05T09:30:54;8.70;;;4.43;;
70744;SDS011;59284;31.390;34.904;2023-01-05T09:33:31;5.85;;;4.22;;
70744;SDS011;59284;31.390;34.904;2023-01-05T09:35:58;6.03;;;3.37;;
70744;SDS011;59284;31.390;34.904;2023-01-05T09:38:25;9.90;;;4.25;;
70744;SDS011;59284;31.390;34.904;2023-01-05T09:40:52;7.35;;;4.53;;
70744;SDS011;59284;31.390;34.904;2023-01-05T09:43:24;9.43;;;4.30;;
70744;SDS011;59284;31.390;34.904;2023-01-05T09:46:03;8.45;;;4.75;;
70744;SDS011;59284;31.390;34.904;2023-01-05T09:49:05;12.65;;;5.28;;
70744;SDS011;59284;31.390;34.904;2023-01-05T09:51:36;7.88;;;4.72;;
70744;SDS011;59284;31.390;34.904;2023-01-05T09:54:02;8.93;;;5.17;;
70744;SDS011;59284;31.390;34.904;2023-01-05T09:56:37;9.60;;;5.22;;
70744;SDS011;59284;31.390;34.904;2023-01-05T10:01:51;8.95;;;4.97;;
70744;SDS011;59284;31.390;34.904;2023-01-05T10:04:26;8.38;;;4.63;;
70744;SDS011;59284;31.390;34.904;2023-01-05T10:07:05;7.20;;;3.50;;
70744;SDS011;59284;31.390;34.904;2023-01-05T10:09:38;8.20;;;5.03;;
70744;SDS011;59284;31.390;34.904;2023-01-05T10:15:15;9.00;;;4.70;;
70744;SDS011;59284;31.390;34.904;2023-01-05T10:17:45;6.97;;;4.97;;
70744;SDS011;59284;31.390;34.904;2023-01-05T10:20:15;6.90;;;4.30;;
70744;SDS011;59284;31.390;34.904;2023-01-05T10:25:52;7.97;;;4.78;;
70744;SDS011;59284;31.390;34.904;2023-01-05T10:28:35;10.00;;;4.85;;
70744;SDS011;59284;31.390;34.904;2023-01-05T10:34:21;9.70;;;4.03;;
70744;SDS011;59284;31.390;34.904;2023-01-05T10:37:21;8.68;;;4.25;;
70744;SDS011;59284;31.390;34.904;2023-01-05T10:45:17;7.93;;;4.45;;
70744;SDS011;59284;31.390;34.904;2023-01-05T10:47:49;9.30;;;4.57;;
70744;SDS011;59284;31.390;34.904;2023-01-05T10:52:46;9.40;;;5.07;;
70744;SDS011;59284;31.390;34.904;2023-01-05T10:55:14;8.13;;;4.50;;
70744;SDS011;59284;31.390;34.904;2023-01-05T10:57:42;6.38;;;4.15;;
70744;SDS011;59284;31.390;34.904;2023-01-05T11:00:15;7.03;;;5.25;;
70744;SDS011;59284;31.390;34.904;2023-01-05T11:02:48;7.63;;;5.13;;
70744;SDS011;59284;31.390;34.904;2023-01-05T11:08:06;9.53;;;5.57;;
70744;SDS011;59284;31.390;34.904;2023-01-05T11:10:58;9.70;;;6.00;;
70744;SDS011;59284;31.390;34.904;2023-01-05T11:16:07;8.05;;;4.15;;
70744;SDS011;59284;31.390;34.904;2023-01-05T11:18:54;11.63;;;3.95;;
70744;SDS011;59284;31.390;34.904;2023-01-05T11:24:03;5.45;;;3.85;;
70744;SDS011;59284;31.390;34.904;2023-01-05T11:26:52;8.45;;;4.10;;
70744;SDS011;59284;31.390;34.904;2023-01-05T11:29:30;8.45;;;4.43;;
70744;SDS011;59284;31.390;34.904;2023-01-05T11:32:03;8.13;;;4.20;;
70744;SDS011;59284;31.390;34.904;2023-01-05T11:37:24;9.98;;;4.82;;
70744;SDS011;59284;31.390;34.904;2023-01-05T11:42:34;8.57;;;4.80;;
70744;SDS011;59284;31.390;34.904;2023-01-05T11:45:15;9.60;;;5.70;;
70744;SDS011;59284;31.390;34.904;2023-01-05T11:47:57;12.43;;;5.82;;
70744;SDS011;59284;31.390;34.904;2023-01-05T11:50:50;10.77;;;5.60;;
70744;SDS011;59284;31.390;34.904;2023-01-05T11:53:36;9.75;;;5.13;;
70744;SDS011;59284;31.390;34.904;2023-01-05T11:58:35;11.00;;;5.30;;
70744;SDS011;59284;31.390;34.904;2023-01-05T12:06:45;10.50;;;5.57;;
70744;SDS011;59284;31.390;34.904;2023-01-05T12:09:43;9.77;;;5.63;;
70744;SDS011;59284;31.390;34.904;2023-01-05T12:12:34;8.77;;;4.57;;
70744;SDS011;59284;31.390;34.904;2023-01-05T12:21:12;6.88;;;4.10;;
70744;SDS011;59284;31.390;34.904;2023-01-05T12:37:41;6.72;;;3.95;;
70744;SDS011;59284;31.390;34.904;2023-01-05T12:43:10;9.63;;;4.00;;
70744;SDS011;59284;31.390;34.904;2023-01-05T12:48:46;8.95;;;5.05;;
70744;SDS011;59284;31.390;34.904;2023-01-05T12:52:05;12.60;;;4.93;;
70744;SDS011;59284;31.390;34.904;2023-01-05T12:54:21;12.63;;;4.67;;
70744;SDS011;59284;31.390;34.904;2023-01-05T12:57:12;8.23;;;4.00;;
70744;SDS011;59284;31.390;34.904;2023-01-05T12:59:46;11.05;;;3.78;;
70744;SDS011;59284;31.390;34.904;2023-01-05T13:02:36;7.22;;;4.03;;
70744;SDS011;59284;31.390;34.904;2023-01-05T13:11:30;10.30;;;4.85;;
70744;SDS011;59284;31.390;34.904;2023-01-05T13:14:09;12.65;;;4.88;;
70744;SDS011;59284;31.390;34.904;2023-01-05T13:16:39;13.15;;;4.93;;
70744;SDS011;59284;31.390;34.904;2023-01-05T13:22:02;8.40;;;5.00;;
70744;SDS011;59284;31.390;34.904;2023-01-05T13:24:34;10.75;;;4.88;;
70744;SDS011;59284;31.390;34.904;2023-01-05T13:27:09;11.27;;;5.28;;
70744;SDS011;59284;31.390;34.904;2023-01-05T13:29:38;12.35;;;5.30;;
70744;SDS011;59284;31.390;34.904;2023-01-05T13:38:33;13.63;;;5.15;;
70744;SDS011;59284;31.390;34.904;2023-01-05T13:41:37;11.95;;;4.18;;
70744;SDS011;59284;31.390;34.904;2023-01-05T13:50:36;17.53;;;5.50;;
70744;SDS011;59284;31.390;34.904;2023-01-05T13:53:20;11.30;;;4.13;;
70744;SDS011;59284;31.390;34.904;2023-01-05T13:55:50;15.20;;;5.60;;
70744;SDS011;59284;31.390;34.904;2023-01-05T13:58:39;13.82;;;6.10;;
70744;SDS011;59284;31.390;34.904;2023-01-05T14:01:08;11.20;;;5.63;;
70744;SDS011;59284;31.390;34.904;2023-01-05T14:06:42;11.18;;;5.40;;
70744;SDS011;59284;31.390;34.904;2023-01-05T14:09:26;9.60;;;5.40;;
70744;SDS011;59284;31.390;34.904;2023-01-05T14:20:45;14.07;;;7.43;;
70744;SDS011;59284;31.390;34.904;2023-01-05T14:25:55;11.63;;;6.07;;
70744;SDS011;59284;31.390;34.904;2023-01-05T14:31:38;16.97;;;7.50;;
70744;SDS011;59284;31.390;34.904;2023-01-05T14:36:33;12.07;;;6.70;;
70744;SDS011;59284;31.390;34.904;2023-01-05T14:44:29;13.97;;;6.63;;
70744;SDS011;59284;31.390;34.904;2023-01-05T14:47:04;16.90;;;8.63;;
70744;SDS011;59284;31.390;34.904;2023-01-05T14:49:33;20.08;;;8.38;;
70744;SDS011;59284;31.390;34.904;2023-01-05T14:52:03;17.20;;;9.18;;
70744;SDS011;59284;31.390;34.904;2023-01-05T14:54:34;21.37;;;10.33;;
70744;SDS011;59284;31.390;34.904;2023-01-05T15:00:00;23.92;;;11.30;;
70744;SDS011;59284;31.390;34.904;2023-01-05T15:02:30;28.83;;;12.05;;
70744;SDS011;59284;31.390;34.904;2023-01-05T15:04:59;24.67;;;11.77;;
70744;SDS011;59284;31.390;34.904;2023-01-05T15:18:42;18.08;;;9.50;;
70744;SDS011;59284;31.390;34.904;2023-01-05T15:27:00;21.05;;;9.02;;
70744;SDS011;59284;31.390;34.904;2023-01-05T15:32:17;23.98;;;10.32;;
70744;SDS011;59284;31.390;34.904;2023-01-05T15:34:47;21.33;;;9.40;;
70744;SDS011;59284;31.390;34.904;2023-01-05T15:39:56;19.45;;;9.27;;
70744;SDS011;59284;31.390;34.904;2023-01-05T15:45:02;24.52;;;11.68;;
70744;SDS011;59284;31.390;34.904;2023-01-05T15:47:34;27.63;;;11.13;;
70744;SDS011;59284;31.390;34.904;2023-01-05T15:50:03;25.63;;;10.65;;
70744;SDS011;59284;31.390;34.904;2023-01-05T15:52:36;24.48;;;11.25;;
70744;SDS011;59284;31.390;34.904;2023-01-05T15:55:10;27.85;;;9.65;;
70744;SDS011;59284;31.390;34.904;2023-01-05T15:57:40;19.20;;;9.55;;
70744;SDS011;59284;31.390;34.904;2023-01-05T16:00:14;25.13;;;10.43;;
70744;SDS011;59284;31.390;34.904;2023-01-05T16:02:42;36.53;;;11.10;;
70744;SDS011;59284;31.390;34.904;2023-01-05T16:05:08;25.60;;;12.68;;
70744;SDS011;59284;31.390;34.904;2023-01-05T16:07:43;26.60;;;12.30;;
70744;SDS011;59284;31.390;34.904;2023-01-05T16:10:49;25.00;;;13.40;;
70744;SDS011;59284;31.390;34.904;2023-01-05T16:15:37;27.08;;;13.85;;
70744;SDS011;59284;31.390;34.904;2023-01-05T16:18:04;31.33;;;13.40;;
70744;SDS011;59284;31.390;34.904;2023-01-05T16:20:34;28.10;;;12.95;;
70744;SDS011;59284;31.390;34.904;2023-01-05T16:25:54;31.75;;;13.60;;
70744;SDS011;59284;31.390;34.904;2023-01-05T16:28:22;23.60;;;10.77;;
70744;SDS011;59284;31.390;34.904;2023-01-05T16:30:49;22.60;;;11.55;;
70744;SDS011;59284;31.390;34.904;2023-01-05T16:33:30;27.00;;;12.48;;
70744;SDS011;59284;31.390;34.904;2023-01-05T16:36:07;22.27;;;11.63;;
70744;SDS011;59284;31.390;34.904;2023-01-05T16:38:36;25.55;;;13.10;;
70744;SDS011;59284;31.390;34.904;2023-01-05T16:41:10;27.63;;;12.85;;
70744;SDS011;59284;31.390;34.904;2023-01-05T16:48:46;20.33;;;11.40;;
70744;SDS011;59284;31.390;34.904;2023-01-05T16:51:16;23.67;;;12.52;;
70744;SDS011;59284;31.390;34.904;2023-01-05T16:53:44;23.15;;;11.32;;
70744;SDS011;59284;31.390;34.904;2023-01-05T16:58:57;26.88;;;11.45;;
70744;SDS011;59284;31.390;34.904;2023-01-05T17:01:38;21.50;;;10.97;;
70744;SDS011;59284;31.390;34.904;2023-01-05T17:06:42;24.23;;;11.43;;
70744;SDS011;59284;31.390;34.904;2023-01-05T17:09:18;26.88;;;11.57;;
70744;SDS011;59284;31.390;34.904;2023-01-05T17:11:45;23.05;;;10.90;;
70744;SDS011;59284;31.390;34.904;2023-01-05T17:14:10;22.47;;;11.60;;
70744;SDS011;59284;31.390;34.904;2023-01-05T17:16:37;33.17;;;11.93;;
70744;SDS011;59284;31.390;34.904;2023-01-05T17:19:13;25.33;;;12.00;;
70744;SDS011;59284;31.390;34.904;2023-01-05T17:21:41;24.27;;;11.48;;
70744;SDS011;59284;31.390;34.904;2023-01-05T17:24:12;21.05;;;11.00;;
70744;SDS011;59284;31.390;34.904;2023-01-05T17:26:39;22.15;;;10.82;;
70744;SDS011;59284;31.390;34.904;2023-01-05T17:29:06;23.17;;;10.43;;
70744;SDS011;59284;31.390;34.904;2023-01-05T17:31:34;21.10;;;10.95;;
70744;SDS011;59284;31.390;34.904;2023-01-05T17:34:00;23.35;;;12.23;;
70744;SDS011;59284;31.390;34.904;2023-01-05T17:36:30;26.77;;;11.35;;
70744;SDS011;59284;31.390;34.904;2023-01-05T17:38:58;24.05;;;11.90;;
70744;SDS011;59284;31.390;34.904;2023-01-05T17:41:28;30.07;;;13.23;;